Time;durP1;ratioP1;P1;durP2;ratioP2;P2;SDS_P1;SDS_P2;PMS_P1;PMS_P2;Temp;Humidity;BMP_temperature;BMP_pressure;BME280_temperature;BME280_humidity;BME280_pressure;Samples;Min_cycle;Max_cycle;Signal;HPM_P1;HPM_P2
2022/07/24 00:00:24;;;;;;;9.98;6.00;;;16.70;99.90;;;;;;5033527;28;20026;-59
2022/07/24 00:02:50;;;;;;;9.93;7.00;;;16.70;99.90;;;;;;5034324;28;20033;-56
2022/07/24 00:05:15;;;;;;;8.90;6.25;;;16.70;99.90;;;;;;5036197;28;20453;-58
2022/07/24 00:07:41;;;;;;;9.10;6.47;;;16.60;99.90;;;;;;5043170;28;20021;-57
2022/07/24 00:10:07;;;;;;;6.38;5.70;;;16.60;99.90;;;;;;5038928;28;20020;-55
2022/07/24 00:12:33;;;;;;;8.77;6.85;;;16.60;99.90;;;;;;5039473;28;20045;-57
2022/07/24 00:14:59;;;;;;;8.05;6.07;;;16.60;99.90;;;;;;5035224;28;20021;-56
2022/07/24 00:17:24;;;;;;;11.70;6.13;;;16.60;99.90;;;;;;5034283;28;20025;-58
2022/07/24 00:19:50;;;;;;;10.65;6.80;;;16.60;99.90;;;;;;5038284;28;20025;-57
2022/07/24 00:22:15;;;;;;;9.88;6.85;;;16.50;99.90;;;;;;5038910;28;20076;-58
2022/07/24 00:24:41;;;;;;;9.02;5.72;;;16.50;99.90;;;;;;5045319;28;20498;-57
2022/07/24 00:27:07;;;;;;;8.70;6.00;;;16.50;99.90;;;;;;5037710;28;20032;-56
2022/07/24 00:29:32;;;;;;;9.15;6.25;;;16.50;99.90;;;;;;5032093;28;20017;-58
2022/07/24 00:31:58;;;;;;;8.10;6.10;;;16.40;99.90;;;;;;5001926;28;20041;-58
2022/07/24 00:34:24;;;;;;;10.27;6.30;;;16.40;99.90;;;;;;5036794;28;20159;-58
2022/07/24 00:36:49;;;;;;;7.60;5.75;;;16.30;99.90;;;;;;5042155;28;20491;-59
2022/07/24 00:39:15;;;;;;;8.85;7.22;;;16.30;99.90;;;;;;5042572;28;20032;-57
2022/07/24 00:41:40;;;;;;;10.52;6.43;;;16.30;99.90;;;;;;5034030;28;20112;-56
2022/07/24 00:44:08;;;;;;;9.80;6.50;;;16.20;99.90;;;;;;5046233;28;20021;-56
2022/07/24 00:46:35;;;;;;;7.60;6.40;;;16.20;99.90;;;;;;5044284;28;20033;-56
2022/07/24 00:49:03;;;;;;;10.05;5.93;;;16.20;99.90;;;;;;5038880;28;20029;-55
2022/07/24 00:51:29;;;;;;;9.77;6.32;;;16.20;99.90;;;;;;5036439;28;20407;-57
2022/07/24 00:53:55;;;;;;;11.02;5.75;;;16.10;99.90;;;;;;5034902;28;20108;-58
2022/07/24 00:56:22;;;;;;;9.25;6.72;;;16.10;99.90;;;;;;5031847;28;20069;-53
2022/07/24 00:58:48;;;;;;;9.13;5.90;;;16.10;99.90;;;;;;5038636;28;20029;-56
2022/07/24 01:01:14;;;;;;;9.70;6.28;;;16.10;99.90;;;;;;5040337;28;20024;-58
2022/07/24 01:03:40;;;;;;;8.32;6.00;;;16.10;99.90;;;;;;5037140;28;20029;-57
2022/07/24 01:06:06;;;;;;;9.80;6.68;;;16.10;99.90;;;;;;5029302;28;20036;-57
2022/07/24 01:08:34;;;;;;;9.98;5.88;;;16.10;99.90;;;;;;5036145;28;20044;-58
2022/07/24 01:11:03;;;;;;;8.73;6.50;;;16.10;99.90;;;;;;5041842;28;20040;-58
2022/07/24 01:13:30;;;;;;;10.80;6.18;;;16.10;99.90;;;;;;5041938;28;20068;-57
2022/07/24 01:15:57;;;;;;;9.07;5.45;;;16.10;99.90;;;;;;5032673;28;20210;-57
2022/07/24 01:18:22;;;;;;;8.95;5.57;;;16.10;99.90;;;;;;5037062;28;20028;-54
2022/07/24 01:20:49;;;;;;;12.65;6.57;;;16.10;99.90;;;;;;5035736;28;20398;-58
2022/07/24 01:23:15;;;;;;;6.93;6.22;;;16.20;99.90;;;;;;5033921;28;20025;-58
2022/07/24 01:25:41;;;;;;;7.95;5.90;;;16.20;99.90;;;;;;5040876;28;20046;-59
2022/07/24 01:28:06;;;;;;;7.15;5.82;;;16.20;99.90;;;;;;5037056;28;20032;-57
2022/07/24 01:30:32;;;;;;;7.55;5.38;;;16.20;99.90;;;;;;5037743;28;20509;-58
2022/07/24 01:32:58;;;;;;;12.13;6.03;;;16.30;99.90;;;;;;5038141;28;20113;-58
2022/07/24 01:35:24;;;;;;;9.15;5.30;;;16.30;99.90;;;;;;5023562;28;20551;-58
2022/07/24 01:37:51;;;;;;;7.90;5.55;;;16.30;99.90;;;;;;5037054;28;20436;-57
2022/07/24 01:40:17;;;;;;;7.07;5.75;;;16.20;99.90;;;;;;5032090;28;20022;-56
2022/07/24 01:42:42;;;;;;;9.43;6.03;;;16.20;99.90;;;;;;5035799;28;20190;-59
2022/07/24 01:45:08;;;;;;;10.55;5.45;;;16.20;99.90;;;;;;5039808;28;20044;-58
2022/07/24 01:47:34;;;;;;;8.13;6.20;;;16.10;99.90;;;;;;5035349;28;20025;-58
2022/07/24 01:50:00;;;;;;;6.95;6.10;;;16.10;99.90;;;;;;5034465;28;20094;-56
2022/07/24 01:52:25;;;;;;;8.65;6.38;;;16.00;99.90;;;;;;5025742;28;20113;-54
2022/07/24 01:54:52;;;;;;;9.43;6.85;;;16.00;99.90;;;;;;5039358;28;20022;-57
2022/07/24 01:57:18;;;;;;;8.68;6.18;;;15.90;99.90;;;;;;5032551;28;20029;-57
2022/07/24 01:59:43;;;;;;;8.95;6.03;;;15.90;99.90;;;;;;5038032;28;20028;-58
2022/07/24 02:02:09;;;;;;;7.13;6.35;;;15.80;99.90;;;;;;5041680;28;20128;-54
2022/07/24 02:04:34;;;;;;;11.90;7.15;;;15.80;99.90;;;;;;5037283;28;20025;-58
2022/07/24 02:07:00;;;;;;;12.73;6.30;;;15.80;99.90;;;;;;5037500;28;20052;-51
2022/07/24 02:09:26;;;;;;;9.10;6.47;;;15.80;99.90;;;;;;5035050;28;20075;-54
2022/07/24 02:11:52;;;;;;;10.00;6.90;;;15.70;99.90;;;;;;5032480;28;20017;-54
2022/07/24 02:14:18;;;;;;;8.73;6.57;;;15.70;99.90;;;;;;5035798;28;20099;-52
2022/07/24 02:16:44;;;;;;;7.15;6.43;;;15.70;99.90;;;;;;5033958;28;20037;-52
2022/07/24 02:19:10;;;;;;;11.02;6.88;;;15.70;99.90;;;;;;5035475;28;20047;-59
2022/07/24 02:21:35;;;;;;;9.93;6.85;;;15.70;99.90;;;;;;5042732;28;20021;-53
2022/07/24 02:24:01;;;;;;;8.73;6.82;;;15.70;99.90;;;;;;5043874;28;20461;-59
2022/07/24 02:26:27;;;;;;;8.77;6.72;;;15.70;99.90;;;;;;5038325;28;20025;-54
2022/07/24 02:28:53;;;;;;;8.77;6.40;;;15.60;99.90;;;;;;5037839;28;20033;-53
2022/07/24 02:31:19;;;;;;;10.75;6.90;;;15.60;99.90;;;;;;5032530;28;20079;-57
2022/07/24 02:33:44;;;;;;;7.38;5.93;;;15.50;99.90;;;;;;5042952;28;20061;-57
2022/07/24 02:36:10;;;;;;;12.45;7.50;;;15.50;99.90;;;;;;5041698;28;20044;-53
2022/07/24 02:38:36;;;;;;;8.35;6.18;;;15.50;99.90;;;;;;5028178;28;20132;-53
2022/07/24 02:41:02;;;;;;;12.18;6.70;;;15.50;99.90;;;;;;5045051;28;20068;-54
2022/07/24 02:43:28;;;;;;;7.90;6.85;;;15.40;99.90;;;;;;5033220;28;20033;-59
2022/07/24 02:45:53;;;;;;;7.85;6.70;;;15.40;99.90;;;;;;5031959;28;20030;-56
2022/07/24 02:48:19;;;;;;;14.32;7.22;;;15.40;99.90;;;;;;5043822;28;20087;-59
2022/07/24 02:50:45;;;;;;;8.82;7.35;;;15.40;99.90;;;;;;5045652;28;20033;-58
2022/07/24 02:53:11;;;;;;;8.77;6.85;;;15.40;99.90;;;;;;5042642;28;20037;-55
2022/07/24 02:55:36;;;;;;;8.50;6.90;;;15.30;99.90;;;;;;5051572;28;20017;-55
2022/07/24 02:58:03;;;;;;;12.95;7.18;;;15.30;99.90;;;;;;5051625;28;20029;-55
2022/07/24 03:00:29;;;;;;;8.40;7.22;;;15.30;99.90;;;;;;5049953;28;20027;-58
2022/07/24 03:02:55;;;;;;;10.63;7.63;;;15.30;99.90;;;;;;5047320;28;20025;-54
2022/07/24 03:05:21;;;;;;;11.82;8.00;;;15.20;99.90;;;;;;5032546;28;20438;-59
2022/07/24 03:07:46;;;;;;;12.07;8.43;;;15.20;99.90;;;;;;5064664;23;20507;-58
2022/07/24 03:10:13;;;;;;;13.57;7.70;;;15.30;99.90;;;;;;5045657;28;20064;-57
2022/07/24 03:12:39;;;;;;;8.30;7.22;;;15.20;99.90;;;;;;5046873;28;20040;-56
2022/07/24 03:15:06;;;;;;;8.52;7.18;;;15.20;99.90;;;;;;5048465;28;20028;-54
2022/07/24 03:17:31;;;;;;;8.48;7.55;;;15.20;99.90;;;;;;5046841;28;20398;-56
2022/07/24 03:19:57;;;;;;;11.27;7.90;;;15.20;99.90;;;;;;5039128;28;20017;-56
2022/07/24 03:22:23;;;;;;;11.07;8.00;;;15.20;99.90;;;;;;5037994;28;20393;-57
2022/07/24 03:24:48;;;;;;;9.25;7.32;;;15.10;99.90;;;;;;5050950;28;20443;-58
2022/07/24 03:27:14;;;;;;;10.93;7.63;;;15.10;99.90;;;;;;5040727;28;20505;-59
2022/07/24 03:29:39;;;;;;;10.23;7.53;;;15.10;99.90;;;;;;5043914;28;20469;-57
2022/07/24 03:32:05;;;;;;;12.32;8.98;;;15.10;99.90;;;;;;5042252;28;20021;-56
2022/07/24 03:34:31;;;;;;;12.05;8.38;;;15.10;99.90;;;;;;5036700;28;20482;-53
2022/07/24 03:36:57;;;;;;;10.63;7.68;;;15.10;99.90;;;;;;5040562;28;20032;-57
2022/07/24 03:39:22;;;;;;;11.13;8.45;;;15.00;99.90;;;;;;5048226;28;20100;-56
2022/07/24 03:41:48;;;;;;;9.18;7.85;;;15.00;99.90;;;;;;5038934;28;20098;-57
2022/07/24 03:44:14;;;;;;;11.52;7.53;;;15.00;99.90;;;;;;5041783;28;20487;-56
2022/07/24 03:46:39;;;;;;;16.40;8.25;;;15.00;99.90;;;;;;5044071;28;20032;-58
2022/07/24 03:49:05;;;;;;;14.05;8.43;;;15.00;99.90;;;;;;5050393;28;20025;-57
2022/07/24 03:51:31;;;;;;;12.57;7.40;;;15.00;99.90;;;;;;5032954;28;20025;-58
2022/07/24 03:53:56;;;;;;;9.50;7.72;;;15.00;99.90;;;;;;5034425;28;20394;-57
2022/07/24 03:56:22;;;;;;;8.65;7.10;;;15.00;99.90;;;;;;5032605;28;20108;-57
2022/07/24 03:58:47;;;;;;;12.00;7.60;;;15.00;99.90;;;;;;5042572;28;20372;-59
2022/07/24 04:01:13;;;;;;;10.05;8.15;;;15.00;99.90;;;;;;5045988;28;20036;-58
2022/07/24 04:03:39;;;;;;;11.85;8.02;;;15.00;99.90;;;;;;5031310;28;20097;-56
2022/07/24 04:06:05;;;;;;;18.05;8.88;;;15.10;99.90;;;;;;5032224;28;20052;-54
2022/07/24 04:08:31;;;;;;;11.05;7.53;;;15.10;99.90;;;;;;5036778;28;20052;-54
2022/07/24 04:10:57;;;;;;;10.40;7.28;;;15.20;99.90;;;;;;5031952;28;20061;-55
2022/07/24 04:13:30;;;;;;;9.50;8.15;;;15.30;99.90;;;;;;5031369;28;20062;-54
2022/07/24 04:15:57;;;;;;;12.73;8.25;;;15.30;99.90;;;;;;5031866;28;20108;-57
2022/07/24 04:18:23;;;;;;;9.68;6.90;;;15.40;99.90;;;;;;5031184;28;20034;-58
2022/07/24 04:20:49;;;;;;;11.57;6.80;;;15.50;99.90;;;;;;5031987;28;20383;-55
2022/07/24 04:23:14;;;;;;;8.73;6.82;;;15.50;99.90;;;;;;5033462;28;20116;-59
2022/07/24 04:25:40;;;;;;;11.20;6.90;;;15.60;99.90;;;;;;5039437;28;20025;-56
2022/07/24 04:28:06;;;;;;;9.15;6.85;;;15.70;99.90;;;;;;5041337;28;20406;-54
2022/07/24 04:30:31;;;;;;;12.20;5.97;;;15.80;99.90;;;;;;5042486;28;20037;-57
2022/07/24 04:32:58;;;;;;;9.60;7.47;;;15.90;99.90;;;;;;5041850;28;20028;-57
2022/07/24 04:35:24;;;;;;;8.52;6.78;;;16.00;99.90;;;;;;5036204;28;20021;-59
2022/07/24 04:37:50;;;;;;;7.82;6.22;;;16.10;99.90;;;;;;5038443;28;20083;-58
2022/07/24 04:40:16;;;;;;;9.57;6.00;;;16.30;99.90;;;;;;5043277;28;20108;-58
2022/07/24 04:42:42;;;;;;;6.15;5.45;;;16.40;99.90;;;;;;5037566;28;20589;-59
2022/07/24 04:45:09;;;;;;;8.65;5.75;;;16.60;99.90;;;;;;5032117;28;20037;-58
2022/07/24 04:47:35;;;;;;;9.05;5.95;;;16.90;99.90;;;;;;5039756;28;20030;-59
2022/07/24 04:50:01;;;;;;;9.68;5.60;;;17.40;99.90;;;;;;5037100;28;20052;-60
2022/07/24 04:52:27;;;;;;;9.82;5.10;;;17.90;99.90;;;;;;5046125;28;20055;-56
2022/07/24 04:54:52;;;;;;;10.23;5.57;;;18.50;99.90;;;;;;5045462;28;20542;-58
2022/07/24 04:57:18;;;;;;;11.10;4.95;;;19.30;99.90;;;;;;5053555;28;20937;-58
2022/07/24 04:59:44;;;;;;;9.57;3.97;;;19.90;99.90;;;;;;5038012;28;20067;-56
2022/07/24 05:02:09;;;;;;;8.30;4.15;;;20.60;99.90;;;;;;5048280;28;20118;-58
2022/07/24 05:04:35;;;;;;;6.22;4.43;;;20.80;99.90;;;;;;5039971;28;20049;-57
2022/07/24 05:07:03;;;;;;;5.70;3.92;;;21.40;99.90;;;;;;5045743;28;20025;-60
2022/07/24 05:09:29;;;;;;;6.07;3.50;;;21.60;99.90;;;;;;5045731;28;20020;-59
2022/07/24 05:11:54;;;;;;;6.55;3.58;;;21.70;99.40;;;;;;5045481;28;20095;-60
2022/07/24 05:14:20;;;;;;;5.05;3.63;;;21.90;99.30;;;;;;5033990;28;20079;-61
2022/07/24 05:16:46;;;;;;;5.40;3.67;;;22.50;98.40;;;;;;5049253;28;20483;-58
2022/07/24 05:19:12;;;;;;;5.80;3.55;;;22.80;97.10;;;;;;5042290;28;20449;-58
2022/07/24 05:21:38;;;;;;;15.32;5.22;;;23.00;96.50;;;;;;5047756;28;20727;-58
2022/07/24 05:24:04;;;;;;;6.55;4.00;;;23.10;96.00;;;;;;5045475;28;20065;-57
2022/07/24 05:26:31;;;;;;;4.28;3.00;;;23.70;95.10;;;;;;5038611;28;20055;-60
2022/07/24 05:29:01;;;;;;;7.85;3.55;;;24.40;94.30;;;;;;5037417;28;20539;-60
2022/07/24 05:31:27;;;;;;;5.50;3.28;;;25.10;92.40;;;;;;5040805;28;20112;-59
2022/07/24 05:33:53;;;;;;;5.22;3.30;;;25.60;91.60;;;;;;5038767;28;20138;-59
2022/07/24 05:36:19;;;;;;;5.80;3.40;;;26.20;88.00;;;;;;5037725;28;20423;-58
2022/07/24 05:38:45;;;;;;;5.65;3.08;;;26.50;88.30;;;;;;5038869;28;20029;-61
2022/07/24 05:41:11;;;;;;;3.78;3.03;;;26.90;84.30;;;;;;5036632;28;20541;-60
2022/07/24 05:43:37;;;;;;;4.78;2.58;;;27.10;83.80;;;;;;5029437;28;20095;-54
2022/07/24 05:46:04;;;;;;;4.60;2.85;;;26.60;82.70;;;;;;5035382;28;20041;-61
2022/07/24 05:48:29;;;;;;;5.75;3.10;;;27.00;82.40;;;;;;5038225;28;20112;-60
2022/07/24 05:50:56;;;;;;;3.50;2.63;;;27.20;81.20;;;;;;5029940;28;20160;-57
2022/07/24 05:53:22;;;;;;;4.55;2.63;;;27.50;81.30;;;;;;5041823;28;20033;-60
2022/07/24 05:55:48;;;;;;;4.13;2.60;;;27.80;79.80;;;;;;5033345;28;20022;-58
2022/07/24 05:58:13;;;;;;;6.28;2.72;;;27.90;77.50;;;;;;5031112;28;20029;-57
2022/07/24 06:00:39;;;;;;;3.38;2.47;;;28.60;76.00;;;;;;5038678;28;20113;-58
2022/07/24 06:03:05;;;;;;;4.03;2.70;;;29.00;73.60;;;;;;5032042;28;20080;-58
2022/07/24 06:05:31;;;;;;;7.70;3.30;;;29.90;72.50;;;;;;5034813;28;20045;-61
2022/07/24 06:07:56;;;;;;;2.33;1.85;;;29.00;71.80;;;;;;5033763;28;20042;-60
2022/07/24 06:10:22;;;;;;;4.47;2.47;;;28.70;74.60;;;;;;5029459;28;20033;-59
2022/07/24 06:12:47;;;;;;;3.75;2.75;;;28.70;75.20;;;;;;5029891;28;20025;-60
2022/07/24 06:15:13;;;;;;;5.53;2.45;;;28.20;73.10;;;;;;5030441;28;20028;-59
2022/07/24 06:17:40;;;;;;;4.55;2.90;;;28.00;73.40;;;;;;5029787;28;20056;-58
2022/07/24 06:20:07;;;;;;;3.38;2.65;;;28.10;74.00;;;;;;5037123;28;20053;-60
2022/07/24 06:22:32;;;;;;;3.22;2.65;;;28.10;74.50;;;;;;5043964;28;20200;-58
2022/07/24 06:24:58;;;;;;;6.07;2.25;;;28.10;74.80;;;;;;5037181;28;20112;-59
2022/07/24 06:27:23;;;;;;;6.22;2.60;;;28.80;74.90;;;;;;5037963;28;20022;-60
2022/07/24 06:29:49;;;;;;;2.42;2.20;;;29.90;72.00;;;;;;5037482;28;20035;-60
2022/07/24 06:32:14;;;;;;;5.45;2.17;;;30.30;70.20;;;;;;5040333;28;20040;-60
2022/07/24 06:34:40;;;;;;;3.95;2.50;;;30.70;69.70;;;;;;5035925;28;20388;-60
2022/07/24 06:37:06;;;;;;;5.10;2.47;;;30.30;69.00;;;;;;5035770;28;20075;-58
2022/07/24 06:39:32;;;;;;;4.70;2.40;;;31.10;67.20;;;;;;5040372;28;20510;-59
2022/07/24 06:41:57;;;;;;;7.85;2.83;;;31.10;66.30;;;;;;5042933;28;20032;-61
2022/07/24 06:44:23;;;;;;;5.68;2.88;;;30.60;67.60;;;;;;5032575;28;20033;-61
2022/07/24 06:46:50;;;;;;;3.10;2.10;;;31.40;68.80;;;;;;5044134;28;20112;-59
2022/07/24 06:49:15;;;;;;;4.30;2.53;;;32.60;65.80;;;;;;5034745;28;20033;-62
2022/07/24 06:51:41;;;;;;;8.45;3.30;;;33.40;64.10;;;;;;5042188;28;20654;-61
2022/07/24 06:54:06;;;;;;;4.60;2.38;;;32.80;64.10;;;;;;5030585;28;20060;-61
2022/07/24 06:56:32;;;;;;;3.45;2.42;;;34.00;62.10;;;;;;5039013;28;20114;-62
2022/07/24 06:58:59;;;;;;;6.45;2.30;;;33.50;62.80;;;;;;5033225;28;20026;-61
2022/07/24 07:01:25;;;;;;;3.63;2.33;;;33.40;62.20;;;;;;5038965;28;20028;-61
2022/07/24 07:03:53;;;;;;;2.65;1.98;;;33.00;62.30;;;;;;5039429;28;20032;-60
2022/07/24 07:06:19;;;;;;;3.75;2.47;;;33.80;61.20;;;;;;5044902;28;20029;-60
2022/07/24 07:08:44;;;;;;;3.88;2.28;;;33.80;61.10;;;;;;5045653;28;20025;-61
2022/07/24 07:11:10;;;;;;;4.45;2.33;;;33.40;60.70;;;;;;5040987;28;20040;-62
2022/07/24 07:13:36;;;;;;;4.10;2.58;;;33.90;60.00;;;;;;5036968;28;20478;-59
2022/07/24 07:16:01;;;;;;;5.93;2.60;;;33.20;60.70;;;;;;5049711;28;20029;-59
2022/07/24 07:18:27;;;;;;;5.60;2.40;;;33.50;61.50;;;;;;5049884;28;20021;-59
2022/07/24 07:20:53;;;;;;;3.00;2.42;;;33.70;61.10;;;;;;5040211;28;20104;-59
2022/07/24 07:23:26;;;;;;;2.90;2.08;;;33.90;60.90;;;;;;5050934;28;20458;-59
2022/07/24 07:25:53;;;;;;;5.03;2.20;;;33.90;60.60;;;;;;5032466;28;20507;-58
2022/07/24 07:28:19;;;;;;;6.03;2.60;;;34.00;61.20;;;;;;5035194;28;20112;-60
2022/07/24 07:30:44;;;;;;;4.93;2.33;;;35.10;59.20;;;;;;5036099;28;20109;-58
2022/07/24 07:33:10;;;;;;;5.82;2.53;;;35.40;57.90;;;;;;5047841;28;20045;-58
2022/07/24 07:35:35;;;;;;;6.28;2.72;;;35.70;57.90;;;;;;5039844;28;20072;-59
2022/07/24 07:38:01;;;;;;;4.75;2.78;;;35.70;58.40;;;;;;5031732;28;20026;-60
2022/07/24 07:40:27;;;;;;;4.82;2.60;;;35.50;59.10;;;;;;5045061;28;20025;-59
2022/07/24 07:42:52;;;;;;;4.55;2.83;;;35.50;59.00;;;;;;5043396;28;20108;-59
2022/07/24 07:45:18;;;;;;;5.78;2.67;;;35.20;57.40;;;;;;5041594;28;20502;-60
2022/07/24 07:47:45;;;;;;;5.10;2.60;;;35.10;58.70;;;;;;5038143;28;20032;-56
2022/07/24 07:50:11;;;;;;;5.38;2.40;;;35.10;56.90;;;;;;5044867;28;20454;-59
2022/07/24 07:52:37;;;;;;;3.03;2.63;;;35.10;58.00;;;;;;5042523;28;20029;-58
2022/07/24 07:55:04;;;;;;;3.45;2.50;;;35.80;57.60;;;;;;5044661;28;20437;-59
2022/07/24 07:57:30;;;;;;;3.58;2.42;;;37.20;56.20;;;;;;5026257;28;20050;-59
2022/07/24 07:59:55;;;;;;;3.03;2.25;;;36.80;55.20;;;;;;5039221;28;20031;-59
2022/07/24 08:02:21;;;;;;;3.47;2.72;;;37.30;55.10;;;;;;5051606;28;20025;-59
2022/07/24 08:04:47;;;;;;;4.22;2.95;;;37.70;54.60;;;;;;5050591;28;20425;-58
2022/07/24 08:07:12;;;;;;;3.30;2.55;;;37.00;54.00;;;;;;5042714;28;20033;-59
2022/07/24 08:09:38;;;;;;;2.97;2.50;;;36.10;55.30;;;;;;5041548;28;20728;-59
2022/07/24 08:12:04;;;;;;;4.00;2.65;;;36.00;55.20;;;;;;5043077;28;20387;-58
2022/07/24 08:14:30;;;;;;;3.67;2.75;;;36.00;55.10;;;;;;5040279;28;20111;-60
2022/07/24 08:16:56;;;;;;;3.85;2.10;;;36.20;54.80;;;;;;5038893;28;20459;-59
2022/07/24 08:19:22;;;;;;;3.65;2.80;;;37.20;54.50;;;;;;5034885;28;20080;-59
2022/07/24 08:21:48;;;;;;;3.88;2.85;;;37.00;54.30;;;;;;5047854;28;20025;-60
2022/07/24 08:24:20;;;;;;;2.75;2.40;;;36.20;53.80;;;;;;5034190;28;20395;-60
2022/07/24 08:26:46;;;;;;;5.22;2.45;;;36.50;54.30;;;;;;5045714;28;20037;-62
2022/07/24 08:29:12;;;;;;;3.78;2.85;;;37.50;54.10;;;;;;5042991;28;20040;-60
2022/07/24 08:31:38;;;;;;;4.00;2.67;;;37.10;53.50;;;;;;5031344;28;20025;-57
2022/07/24 08:34:03;;;;;;;3.22;2.92;;;36.30;53.10;;;;;;5031066;28;20023;-60
2022/07/24 08:36:29;;;;;;;2.92;2.53;;;35.90;53.90;;;;;;5031449;28;20037;-59
2022/07/24 08:38:55;;;;;;;4.65;2.65;;;36.80;54.00;;;;;;5038179;28;20124;-59
2022/07/24 08:41:21;;;;;;;3.25;2.60;;;36.90;54.30;;;;;;5043817;28;20377;-60
2022/07/24 08:43:47;;;;;;;4.28;2.70;;;36.50;53.80;;;;;;5031275;28;20029;-57
2022/07/24 08:46:15;;;;;;;5.47;2.95;;;36.60;54.00;;;;;;5030867;28;20029;-59
2022/07/24 08:48:45;;;;;;;3.65;2.75;;;37.60;52.60;;;;;;5038300;28;20119;-59
2022/07/24 08:51:13;;;;;;;6.55;3.00;;;37.30;52.50;;;;;;5043809;28;20117;-56
2022/07/24 08:53:39;;;;;;;5.45;2.97;;;36.30;52.90;;;;;;5036069;28;20478;-60
2022/07/24 08:56:05;;;;;;;4.88;2.97;;;36.70;54.60;;;;;;5045370;28;20036;-59
2022/07/24 08:58:39;;;;;;;4.80;2.55;;;37.50;53.40;;;;;;5030182;28;20037;-59
2022/07/24 09:01:05;;;;;;;3.72;2.95;;;37.40;52.30;;;;;;5037162;28;20095;-59
2022/07/24 09:03:42;;;;;;;6.50;2.70;;;36.70;52.00;;;;;;5026904;28;20036;-57
2022/07/24 09:06:10;;;;;;;3.72;2.92;;;36.10;53.30;;;;;;5042945;28;20025;-60
2022/07/24 09:08:36;;;;;;;8.60;3.20;;;35.80;53.20;;;;;;5041949;28;20043;-59
2022/07/24 09:11:03;;;;;;;4.13;3.45;;;35.40;53.30;;;;;;5035402;28;20112;-60
2022/07/24 09:14:29;;;;;;;3.15;2.80;;;35.50;53.60;;;;;;5033831;28;20029;-60
2022/07/24 09:16:22;;;;;;;4.90;3.63;;;35.40;52.30;;;;;;5074201;22;20790;-59
2022/07/24 09:18:49;;;;;;;3.22;2.92;;;35.20;53.10;;;;;;5043041;28;20020;-58
2022/07/24 09:21:17;;;;;;;3.58;3.08;;;35.70;53.70;;;;;;5047783;28;20501;-59
2022/07/24 09:23:43;;;;;;;10.90;3.20;;;36.30;52.70;;;;;;5046335;28;20029;-59
2022/07/24 09:26:09;;;;;;;5.88;2.85;;;36.50;52.90;;;;;;5050294;28;20504;-57
2022/07/24 09:28:54;;;;;;;6.00;2.95;;;36.20;52.90;;;;;;5055103;28;20565;-57
2022/07/24 09:31:24;;;;;;;4.63;3.53;;;35.90;53.10;;;;;;5065306;28;20086;-58
2022/07/24 09:33:50;;;;;;;5.40;3.45;;;35.30;52.50;;;;;;5059049;28;20126;-59
2022/07/24 09:36:17;;;;;;;6.13;3.28;;;35.30;54.70;;;;;;5057200;28;20425;-59
2022/07/24 09:38:52;;;;;;;4.15;3.20;;;35.00;53.20;;;;;;5054726;28;20055;-59
2022/07/24 09:41:20;;;;;;;7.20;3.58;;;35.90;53.70;;;;;;5056587;28;20049;-58
2022/07/24 09:43:59;;;;;;;5.43;3.53;;;36.20;52.90;;;;;;5056102;28;20109;-59
2022/07/24 09:46:26;;;;;;;5.40;3.20;;;36.00;52.50;;;;;;5056092;28;20528;-59
2022/07/24 09:48:59;;;;;;;3.58;3.00;;;35.60;52.50;;;;;;5056116;28;20115;-59
2022/07/24 09:51:27;;;;;;;3.60;2.97;;;36.10;52.40;;;;;;5065283;28;20043;-59
2022/07/24 09:53:55;;;;;;;5.03;3.47;;;36.80;51.10;;;;;;5059154;28;20036;-59
2022/07/24 09:56:21;;;;;;;7.00;3.50;;;36.00;51.90;;;;;;5059541;28;20110;-58
2022/07/24 09:58:51;;;;;;;4.18;3.33;;;35.70;52.50;;;;;;5058452;28;20096;-60
2022/07/24 10:01:19;;;;;;;6.55;3.45;;;35.70;52.70;;;;;;5060375;28;20461;-59
2022/07/24 10:03:46;;;;;;;5.38;3.78;;;36.40;53.20;;;;;;5047889;28;20060;-57
2022/07/24 10:06:17;;;;;;;3.53;3.20;;;36.10;51.40;;;;;;5065830;28;20029;-59
2022/07/24 10:08:45;;;;;;;4.88;3.58;;;35.70;51.50;;;;;;5059988;28;20115;-57
2022/07/24 10:11:11;;;;;;;4.32;3.20;;;35.20;51.90;;;;;;5058855;28;20036;-58
2022/07/24 10:13:37;;;;;;;5.70;4.00;;;35.10;53.60;;;;;;5054306;28;20367;-56
2022/07/24 10:16:08;;;;;;;6.97;3.85;;;35.00;53.50;;;;;;5060721;28;20078;-56
2022/07/24 10:18:54;;;;;;;5.85;3.83;;;34.80;52.00;;;;;;5060995;28;20558;-58
2022/07/24 10:21:23;;;;;;;5.38;3.33;;;34.70;53.10;;;;;;5050691;28;20064;-55
2022/07/24 10:24:07;;;;;;;4.50;3.53;;;33.90;53.60;;;;;;5056966;28;20100;-57
2022/07/24 10:26:56;;;;;;;5.57;4.35;;;33.90;54.70;;;;;;5059697;28;20025;-58
2022/07/24 10:29:24;;;;;;;4.53;3.25;;;34.00;56.80;;;;;;5059326;28;20028;-58
2022/07/24 10:31:52;;;;;;;4.13;3.30;;;34.00;54.10;;;;;;5066399;28;20258;-58
2022/07/24 10:34:46;;;;;;;6.78;3.92;;;33.70;54.70;;;;;;5058461;28;20037;-57
2022/07/24 10:37:36;;;;;;;5.72;3.72;;;33.20;54.50;;;;;;5052221;28;20025;-57
2022/07/24 10:40:14;;;;;;;5.00;3.90;;;32.90;55.10;;;;;;5057650;28;20073;-56
2022/07/24 10:43:01;;;;;;;4.95;3.45;;;32.60;55.20;;;;;;5059049;28;20420;-57
2022/07/24 10:45:30;;;;;;;3.88;3.40;;;32.40;54.70;;;;;;5052576;28;20021;-59
2022/07/24 10:47:56;;;;;;;4.55;3.45;;;32.50;56.60;;;;;;5068446;28;20024;-58
2022/07/24 10:50:23;;;;;;;3.67;3.38;;;32.70;55.80;;;;;;5065092;28;20049;-58
2022/07/24 10:52:49;;;;;;;5.10;3.75;;;32.90;55.00;;;;;;5064966;28;20375;-58
2022/07/24 10:55:26;;;;;;;5.47;3.70;;;32.80;56.20;;;;;;5060789;28;20105;-57
2022/07/24 10:57:57;;;;;;;5.47;3.78;;;32.60;55.50;;;;;;5060906;28;20081;-57
2022/07/24 11:00:24;;;;;;;9.07;4.13;;;32.20;55.80;;;;;;5071073;28;20038;-59
2022/07/24 11:03:07;;;;;;;4.78;3.45;;;31.90;56.80;;;;;;5049718;28;20032;-59
2022/07/24 11:05:38;;;;;;;5.53;3.75;;;31.80;56.80;;;;;;5066904;28;20028;-58
2022/07/24 11:08:12;;;;;;;4.40;3.50;;;31.60;56.60;;;;;;5060846;28;20509;-57
2022/07/24 11:10:46;;;;;;;7.18;3.83;;;31.90;57.20;;;;;;5060348;28;20793;-58
2022/07/24 11:13:33;;;;;;;5.40;3.78;;;32.10;57.20;;;;;;5060078;28;20079;-60
2022/07/24 11:16:11;;;;;;;6.35;3.72;;;32.10;57.20;;;;;;5064664;28;20032;-57
2022/07/24 11:18:38;;;;;;;6.05;3.60;;;32.10;57.80;;;;;;5057335;28;20120;-59
2022/07/24 11:21:04;;;;;;;6.18;3.63;;;32.00;58.10;;;;;;5062432;28;20170;-56
2022/07/24 11:23:30;;;;;;;4.47;3.42;;;31.90;59.30;;;;;;5059186;28;20029;-56
2022/07/24 11:26:35;;;;;;;4.70;3.50;;;32.10;59.80;;;;;;5054968;28;20079;-55
2022/07/24 11:29:17;;;;;;;4.65;3.65;;;31.80;57.20;;;;;;5056375;28;20025;-57
2022/07/24 11:31:45;;;;;;;6.82;4.10;;;31.70;58.70;;;;;;5060168;28;20035;-55
2022/07/24 11:34:11;;;;;;;4.70;3.72;;;31.90;58.60;;;;;;5058990;28;20379;-55
2022/07/24 11:36:42;;;;;;;6.13;4.15;;;32.10;58.30;;;;;;5055160;28;20029;-55
2022/07/24 11:39:08;;;;;;;7.60;3.40;;;32.10;57.10;;;;;;5067111;28;20132;-57
2022/07/24 11:41:48;;;;;;;5.05;3.70;;;32.00;57.80;;;;;;5062760;28;20537;-58
2022/07/24 11:44:21;;;;;;;8.07;4.80;;;31.80;57.90;;;;;;5059312;28;20032;-58
2022/07/24 11:46:47;;;;;;;9.93;4.03;;;31.80;57.30;;;;;;5054910;28;20490;-56
2022/07/24 11:49:12;;;;;;;4.45;3.33;;;31.80;57.40;;;;;;5058102;28;20043;-58
2022/07/24 11:51:46;;;;;;;4.05;3.58;;;31.80;57.50;;;;;;5061954;28;20563;-57
2022/07/24 11:54:13;;;;;;;5.43;3.92;;;31.60;58.30;;;;;;5051902;28;20081;-57
2022/07/24 11:56:40;;;;;;;4.22;3.80;;;31.50;58.10;;;;;;5054778;28;20112;-58
2022/07/24 11:59:06;;;;;;;5.15;3.83;;;31.40;58.60;;;;;;5053265;28;20035;-56
2022/07/24 12:01:31;;;;;;;5.38;3.85;;;31.40;57.10;;;;;;5056398;28;20107;-56
2022/07/24 12:03:59;;;;;;;4.88;4.00;;;31.30;57.20;;;;;;5050744;28;20037;-55
2022/07/24 12:06:26;;;;;;;5.45;3.50;;;31.40;58.30;;;;;;5063453;28;20028;-57
2022/07/24 12:08:57;;;;;;;6.18;3.90;;;31.50;58.60;;;;;;5061975;28;20056;-55
2022/07/24 12:11:23;;;;;;;6.93;3.97;;;31.30;58.30;;;;;;5062570;28;20025;-58
2022/07/24 12:13:51;;;;;;;5.13;3.58;;;31.30;58.60;;;;;;5063590;28;20119;-56
2022/07/24 12:16:25;;;;;;;5.68;3.90;;;31.30;58.30;;;;;;5061889;28;20039;-56
2022/07/24 12:18:50;;;;;;;5.47;4.30;;;31.10;58.90;;;;;;5054485;28;20396;-56
2022/07/24 12:21:18;;;;;;;9.82;3.65;;;31.20;59.20;;;;;;5052852;28;20044;-56
2022/07/24 12:23:46;;;;;;;5.70;3.90;;;31.20;58.50;;;;;;5065215;28;20036;-58
2022/07/24 12:26:11;;;;;;;4.10;3.67;;;31.00;56.70;;;;;;5055485;28;20040;-58
2022/07/24 12:28:37;;;;;;;7.15;3.85;;;31.10;57.30;;;;;;5056004;28;20032;-57
2022/07/24 12:31:10;;;;;;;6.30;3.83;;;31.00;57.80;;;;;;5058787;28;20064;-57
2022/07/24 12:33:35;;;;;;;;;;;30.80;57.50;;;;;;5056030;28;20044;-56
2022/07/24 12:36:08;;;;;;;6.47;3.50;;;30.70;59.20;;;;;;5066189;28;19908;-57
2022/07/24 12:38:39;;;;;;;;;;;30.80;60.70;;;;;;5051962;28;20131;-55
2022/07/24 12:41:09;;;;;;;6.88;4.00;;;30.90;60.00;;;;;;5058741;28;19908;-58
2022/07/24 12:43:58;;;;;;;6.68;3.72;;;30.90;59.40;;;;;;5060371;28;20125;-59
2022/07/24 12:46:34;;;;;;;6.28;4.35;;;30.80;59.20;;;;;;5057905;28;20025;-58